Cholame, California
Current Conditions -  °F | °C
As of 8:53 AM on Saturday 25 Oct 2014 (Local Time) from KPRB Reporting Station
Clear Clear  
Wind Chill: 53°   Ceiling: Unl
Heat Index: 53°   Visibility: 10mi
Dew Point: 47°   Wind: 3mph
Humidity: 80%   Direction: 150°SSE
Pressure: 30.08"   Gusts: NA
Location:  35.5788°N, 120.247°W
Report Text: KPRB 251553Z AUTO 15003KT 10SM CLR 12/08 A3008 RMK AO2 SLP183 T01170083 TSNO
Loading
Personal Weather Stations






























Interactive Weather Map
Tropical Storm Tracking
New forecast layout! Learn more

10-Day Weather Forecast

Advertisements
Track Severe Weather on mobile